Terminal Aerodrome Forecast
Issued by NWS Wilmington, OH

Current Version | Previous Version | Graphics & Text | Print | Product List | Glossary On
Versions: 1 2 3 4 5 6 7 8 9 10 11 12 13 14 15 16 17 18 19
000
FTUS41 KILN 260500 RRA
TAFDAY
TAF
KDAY 260545Z 2606/2706 34006KT 5SM BR VCSH SCT035 BKN100
     FM260700 03006KT 5SM -SHRA BR OVC040
     FM261000 03006KT 3SM -SHRA BR OVC015
     FM261200 33015G22KT 2SM -SHRA BR OVC015
     FM261600 33015G24KT P6SM OVC025
     FM262100 32014KT P6SM SCT040 BKN120=

USA.gov is the U.S. government's official web portal to all federal, state and local government web resources and services.